Delta Virtual Airport Information Service

Phoenix Sky Harbor International Airport

ICAO: KPHX Country: United States
Latitude: 33.4343 Longitude: -112.011
Latest Arrival : AAL3833001 (KORD-KPHX) Latest Departure : DAL1453 (KPHX-KDTW)


WX CaptureLIVE
Data provided by noaa.gov | Fetched at 23:30:50

METAR : KPHX 250351Z 26011G18KT 10SM SCT250 31/M05 A2973 RMK AO2 SLP047 T03111050

TAF : KPHX 250415Z 2504/2606 25010KT P6SM SKC FM250600 25006KT P6SM SKC FM251100 10004KT P6SM FEW250 FM252000 26008KT P6SM SKC


Runway Data for KPHX
Data provided by openaviationdata.com

Runway ID Mag Var Hdg Length Elevation Surface ILS Freq ILS Id ILS Slope
07L 12 78° 10287 ft 1135 ft Asphalt 111.5 IPHX 3
07R 12 78° 7791 ft 1135 ft Concrete 110.75 IAHA 3
8 12 78° 11477 ft 1135 ft Concrete 111.75 ISYQ 3
25L 12 258° 7791 ft 1135 ft Concrete 110.75 IRJG 3
25R 12 258° 10287 ft 1135 ft Asphalt -- -- --
26 12 258° 11477 ft 1135 ft Concrete 111.75 ICWJ 3

Phoenix Sky Harbor International Airport, United States
Use only for reference purposes



Not for navigational purposes.